Time;durP1;ratioP1;P1;durP2;ratioP2;P2;SDS_P1;SDS_P2;PMS_P1;PMS_P2;Temp;Humidity;BMP_temperature;BMP_pressure;BME280_temperature;BME280_humidity;BME280_pressure;Samples;Min_cycle;Max_cycle;Signal;HPM_P1;HPM_P2
2022/10/21 00:02:55;;;;;;;53.72;27.75;;;;;;;11.53;89.83;99934.03;10449255;28;20060;-80
2022/10/21 00:07:58;;;;;;;;;;;;;;;11.67;89.69;99925.53;10444872;28;20041;-79
2022/10/21 00:13:02;;;;;;;44.13;24.50;;;;;;;11.74;89.69;99918.59;10452296;28;19951;-80
2022/10/21 00:18:05;;;;;;;39.03;23.50;;;;;;;11.80;89.49;99911.78;10423551;28;20127;-79
2022/10/21 00:23:07;;;;;;;;;;;;;;;11.93;89.50;99905.09;10428374;28;20193;-79
2022/10/21 00:28:12;;;;;;;40.28;23.25;;;;;;;12.01;88.93;99920.50;10444436;28;19921;-79
2022/10/21 00:33:14;;;;;;;41.88;22.27;;;;;;;12.02;88.80;99916.84;10450577;28;20498;-79
2022/10/21 00:38:17;;;;;;;44.05;23.58;;;;;;;11.97;88.84;99910.19;10437864;28;20049;-80
2022/10/21 00:43:21;;;;;;;40.40;23.35;;;;;;;11.96;89.13;99903.97;10449788;28;20042;-80
2022/10/21 00:48:31;;;;;;;49.70;25.58;;;;;;;12.04;88.72;99905.91;10439731;28;20069;-79
2022/10/21 00:53:36;;;;;;;48.08;26.63;;;;;;;12.11;88.39;99899.81;10447963;28;20515;-80
2022/10/21 00:58:40;;;;;;;38.15;24.30;;;;;;;12.15;88.37;99893.16;10437978;28;20557;-79
2022/10/21 01:03:43;;;;;;;38.20;22.83;;;;;;;12.09;88.31;99887.47;10442874;28;20052;-79
2022/10/21 01:08:46;;;;;;;;;;;;;;;11.95;88.18;99883.41;10447841;28;20099;-79
2022/10/21 01:13:57;;;;;;;;;;;;;;;11.82;88.56;99875.66;10446838;28;19971;-79
2022/10/21 01:19:08;;;;;;;60.53;30.52;;;;;;;11.81;88.69;99863.19;10442480;28;19959;-79
2022/10/21 01:24:47;;;;;;;51.33;29.08;;;;;;;11.81;88.98;99859.66;10459916;28;20045;-80
2022/10/21 01:30:17;;;;;;;59.55;28.83;;;;;;;11.86;89.37;99855.53;10421959;28;20080;-79
2022/10/21 01:35:24;;;;;;;53.42;29.33;;;;;;;11.85;89.77;99842.25;10436897;28;20056;-80
2022/10/21 01:40:34;;;;;;;45.25;26.30;;;;;;;11.96;89.36;99839.38;10442324;28;20486;-79
2022/10/21 01:45:43;;;;;;;40.72;24.30;;;;;;;12.02;89.17;99814.56;10431084;28;20094;-79
2022/10/21 01:50:52;;;;;;;46.15;24.33;;;;;;;12.04;89.34;99809.88;10446222;28;20061;-79
2022/10/21 01:55:58;;;;;;;41.00;24.20;;;;;;;12.10;89.42;99803.88;10447104;28;20081;-80
2022/10/21 02:01:03;;;;;;;41.17;23.55;;;;;;;12.17;89.17;99802.28;10446872;28;20410;-80
2022/10/21 02:06:07;;;;;;;42.63;21.00;;;;;;;12.37;89.42;99788.78;10428247;28;20508;-79
2022/10/21 02:11:12;;;;;;;38.97;22.02;;;;;;;12.50;89.17;99794.63;10438536;28;20071;-79
2022/10/21 02:16:18;;;;;;;40.80;21.00;;;;;;;12.53;88.99;99786.28;10436835;28;20061;-79
2022/10/21 02:21:25;;;;;;;37.30;19.63;;;;;;;12.63;89.11;99785.34;10441216;28;20045;-80
2022/10/21 02:26:28;;;;;;;34.72;19.20;;;;;;;12.73;89.30;99799.63;10434925;28;20202;-80
2022/10/21 02:31:57;;;;;;;36.40;19.08;;;;;;;12.73;89.15;99800.44;10426212;28;20160;-79
2022/10/21 02:37:10;;;;;;;32.58;20.13;;;;;;;12.71;89.47;99807.84;10427121;28;20128;-79
2022/10/21 02:42:19;;;;;;;33.70;20.55;;;;;;;12.74;89.77;99810.22;10431778;28;20045;-79
2022/10/21 02:47:25;;;;;;;35.33;20.77;;;;;;;12.69;90.00;99796.34;10428158;28;20042;-79
2022/10/21 02:52:29;;;;;;;37.38;21.23;;;;;;;12.63;90.12;99777.28;10423587;28;20097;-79
2022/10/21 02:57:32;;;;;;;47.08;24.80;;;;;;;12.51;90.32;99766.72;10440169;28;20081;-79
2022/10/21 03:02:35;;;;;;;51.70;27.45;;;;;;;12.44;90.44;99765.63;10417424;28;20128;-79
2022/10/21 03:07:39;;;;;;;;;;;;;;;12.42;90.71;99764.91;10426844;28;20068;-78
2022/10/21 03:12:42;;;;;;;55.83;29.20;;;;;;;12.34;90.71;99764.81;10440359;28;19971;-80
2022/10/21 03:17:45;;;;;;;53.13;29.38;;;;;;;12.23;91.10;99759.59;10446274;28;20040;-79
2022/10/21 03:22:49;;;;;;;;;;;;;;;12.17;90.90;99758.38;10461585;28;20076;-79
2022/10/21 03:27:52;;;;;;;68.78;34.92;;;;;;;12.01;91.14;99758.16;10461710;28;19961;-79
2022/10/21 03:32:55;;;;;;;65.15;32.83;;;;;;;12.05;91.51;99751.50;10444201;28;20101;-80
2022/10/21 03:37:58;;;;;;;;;;;;;;;11.99;91.13;99742.19;10477834;23;20088;-79
2022/10/21 03:43:01;;;;;;;53.28;30.90;;;;;;;11.91;91.54;99736.69;10466745;28;19964;-79
2022/10/21 03:48:04;;;;;;;;;;;;;;;11.88;91.49;99737.00;10452155;28;20443;-79
2022/10/21 03:53:08;;;;;;;58.33;30.63;;;;;;;11.84;91.20;99739.09;10443875;28;19920;-78
2022/10/21 03:58:27;;;;;;;66.20;33.20;;;;;;;11.80;91.30;99743.09;10443904;28;20042;-79
2022/10/21 04:03:29;;;;;;;67.88;32.97;;;;;;;11.63;91.64;99733.97;10441230;28;20045;-79
2022/10/21 04:08:34;;;;;;;62.67;32.83;;;;;;;11.75;91.60;99739.16;10422881;28;20045;-78
2022/10/21 04:13:37;;;;;;;67.80;33.55;;;;;;;11.77;91.70;99734.50;10435136;28;20041;-80
2022/10/21 04:18:39;;;;;;;;;;;;;;;11.79;91.35;99719.88;10457889;28;20118;-78
2022/10/21 04:23:43;;;;;;;59.67;31.65;;;;;;;11.76;91.24;99720.16;10453446;28;19925;-79
2022/10/21 04:28:46;;;;;;;57.75;29.52;;;;;;;11.75;91.21;99723.03;10448020;28;20124;-79
2022/10/21 04:33:50;;;;;;;55.30;28.58;;;;;;;11.70;91.06;99718.06;10441831;28;20076;-79
2022/10/21 04:38:54;;;;;;;59.55;31.10;;;;;;;11.65;91.20;99714.97;10440629;28;20482;-79
2022/10/21 04:43:57;;;;;;;53.78;30.30;;;;;;;11.62;91.38;99708.03;10435663;28;20068;-79
2022/10/21 04:48:59;;;;;;;;;;;;;;;11.64;90.98;99702.53;10445086;28;20051;-79
2022/10/21 04:54:04;;;;;;;57.67;30.13;;;;;;;11.55;91.10;99695.34;10464251;28;19974;-78
2022/10/21 04:59:07;;;;;;;65.05;34.08;;;;;;;11.48;91.12;99684.31;10460428;28;20083;-79
2022/10/21 05:04:09;;;;;;;73.15;33.35;;;;;;;11.41;91.19;99680.50;10429255;28;20120;-80
2022/10/21 05:09:14;;;;;;;66.97;32.83;;;;;;;11.46;91.10;99672.84;10435625;28;20041;-79
2022/10/21 05:14:16;;;;;;;59.88;32.30;;;;;;;11.46;91.14;99675.56;10441131;28;20120;-79
2022/10/21 05:19:24;;;;;;;65.45;30.73;;;;;;;11.46;91.18;99680.94;10446193;28;20456;-80
2022/10/21 05:24:34;;;;;;;60.97;31.70;;;;;;;11.39;91.17;99685.22;10433647;28;20056;-79
2022/10/21 05:29:36;;;;;;;60.25;30.95;;;;;;;11.39;90.90;99674.47;10427863;28;20072;-79
2022/10/21 05:34:39;;;;;;;58.88;33.22;;;;;;;11.30;90.97;99669.94;10423753;28;20107;-78
2022/10/21 05:39:43;;;;;;;65.72;33.40;;;;;;;11.27;91.00;99671.97;10437044;28;20430;-80
2022/10/21 05:44:47;;;;;;;61.65;30.33;;;;;;;11.31;90.99;99675.19;10455474;28;20034;-79
2022/10/21 05:49:50;;;;;;;59.42;30.38;;;;;;;11.34;91.32;99685.66;10449289;28;20088;-78
2022/10/21 05:54:54;;;;;;;57.13;29.90;;;;;;;11.37;91.00;99679.97;10445855;28;20054;-79
2022/10/21 05:59:56;;;;;;;52.92;29.55;;;;;;;11.35;91.07;99684.63;10422341;28;20045;-80
2022/10/21 06:04:59;;;;;;;;;;;;;;;11.37;91.20;99685.34;10435754;28;20080;-80
2022/10/21 06:10:04;;;;;;;55.30;29.30;;;;;;;11.35;91.16;99684.63;10445800;28;20020;-79
2022/10/21 06:15:08;;;;;;;50.97;28.52;;;;;;;11.38;91.05;99688.88;10393502;28;20057;-81
2022/10/21 06:20:11;;;;;;;56.35;30.65;;;;;;;11.41;91.36;99691.28;10410572;28;20061;-79
2022/10/21 06:25:15;;;;;;;55.25;28.33;;;;;;;11.44;91.48;99686.47;10416234;28;20053;-80
2022/10/21 06:30:23;;;;;;;58.13;28.92;;;;;;;11.46;91.93;99680.94;10372794;28;20079;-80
2022/10/21 06:35:26;;;;;;;;;;;;;;;11.65;91.46;99690.75;10379417;28;20486;-81
2022/10/21 06:40:30;;;;;;;29.60;19.27;;;;;;;11.66;91.55;99685.25;10397190;28;19932;-82
2022/10/21 06:45:33;;;;;;;28.42;14.73;;;;;;;11.78;91.31;99685.91;10397148;28;20067;-80
2022/10/21 06:50:36;;;;;;;;;;;;;;;11.84;91.32;99698.75;10398165;28;20398;-80
2022/10/21 06:55:40;;;;;;;27.75;18.60;;;;;;;11.92;91.30;99706.91;10396866;28;19948;-79
2022/10/21 07:00:43;;;;;;;24.10;17.27;;;;;;;11.97;91.23;99701.09;10399998;28;20084;-80
2022/10/21 07:05:46;;;;;;;;;;;;;;;12.07;91.36;99711.81;10405561;28;20063;-80
2022/10/21 07:10:50;;;;;;;31.58;18.00;;;;;;;12.15;91.28;99714.63;10415899;28;19931;-79
2022/10/21 07:15:59;;;;;;;31.25;19.40;;;;;;;12.17;91.41;99718.81;10403003;28;20057;-83
2022/10/21 07:21:05;;;;;;;33.47;20.08;;;;;;;12.25;91.45;99728.84;10411743;28;21314;-81
2022/10/21 07:26:09;;;;;;;33.63;19.92;;;;;;;12.33;91.17;99725.44;10404790;28;20055;-80
2022/10/21 07:31:13;;;;;;;31.25;20.17;;;;;;;12.40;90.99;99723.84;10405274;28;20048;-82
2022/10/21 07:36:19;;;;;;;31.20;21.15;;;;;;;12.40;90.82;99729.22;10396118;28;20055;-81
2022/10/21 07:41:26;;;;;;;33.15;19.40;;;;;;;12.56;90.94;99729.38;10420863;28;20045;-80
2022/10/21 07:46:28;;;;;;;35.67;20.67;;;;;;;12.65;90.79;99722.22;10400173;28;20064;-80
2022/10/21 07:51:31;;;;;;;29.65;19.40;;;;;;;12.93;90.73;99720.28;10398783;28;20051;-81
2022/10/21 07:56:38;;;;;;;32.60;19.15;;;;;;;13.04;90.24;99733.50;10395305;28;20053;-82
2022/10/21 08:01:44;;;;;;;27.88;18.05;;;;;;;13.24;90.03;99728.78;10407348;28;20079;-81
2022/10/21 08:06:48;;;;;;;33.03;18.55;;;;;;;13.38;88.64;99730.06;10392814;28;20053;-82
2022/10/21 08:11:52;;;;;;;23.73;16.75;;;;;;;13.46;88.05;99730.13;10392625;28;20053;-80
2022/10/21 08:16:55;;;;;;;22.38;14.60;;;;;;;13.65;88.21;99728.22;10383201;28;20052;-81
2022/10/21 08:21:59;;;;;;;23.13;15.55;;;;;;;13.83;88.04;99725.47;10387969;28;20057;-81
2022/10/21 08:27:05;;;;;;;19.02;14.50;;;;;;;14.01;87.17;99722.66;10418689;28;21287;-82
2022/10/21 08:32:08;;;;;;;22.08;13.80;;;;;;;14.10;86.52;99725.25;10407012;28;20509;-80
2022/10/21 08:37:11;;;;;;;20.52;12.90;;;;;;;14.18;86.41;99716.31;10389034;28;20060;-80
2022/10/21 08:42:17;;;;;;;23.15;14.23;;;;;;;14.19;86.08;99722.56;10396273;28;20434;-81
2022/10/21 08:47:29;;;;;;;19.85;14.00;;;;;;;14.21;86.57;99725.97;10405272;28;20063;-81
2022/10/21 08:52:41;;;;;;;19.45;12.95;;;;;;;14.14;85.50;99728.44;10392833;28;20059;-80
2022/10/21 08:57:46;;;;;;;18.88;13.85;;;;;;;14.45;87.10;99723.31;10404009;28;20049;-80
2022/10/21 09:03:04;;;;;;;21.67;14.13;;;;;;;14.69;87.06;99710.88;10415169;28;20048;-81
2022/10/21 09:08:16;;;;;;;20.83;12.57;;;;;;;14.73;86.16;99729.31;10402026;28;20052;-81
2022/10/21 09:13:39;;;;;;;17.02;11.35;;;;;;;14.93;86.15;99724.41;10417272;28;20131;-81
2022/10/21 09:18:51;;;;;;;13.45;10.50;;;;;;;14.93;84.36;99715.47;10373020;28;20513;-81
2022/10/21 09:24:02;;;;;;;18.10;10.10;;;;;;;15.03;84.20;99710.75;10405886;28;20183;-81
2022/10/21 09:29:20;;;;;;;16.15;10.32;;;;;;;15.13;84.91;99718.66;10403496;28;20059;-81
2022/10/21 09:34:38;;;;;;;14.00;9.18;;;;;;;15.20;83.84;99725.09;10397658;28;20124;-80
2022/10/21 09:39:47;;;;;;;13.82;9.70;;;;;;;15.21;84.68;99724.91;10389446;28;20505;-81
2022/10/21 09:44:51;;;;;;;12.25;9.18;;;;;;;15.21;84.15;99713.25;10424843;28;20660;-80
2022/10/21 09:49:57;;;;;;;13.57;9.25;;;;;;;15.25;85.86;99706.50;10397817;28;20049;-81
2022/10/21 09:55:13;;;;;;;13.90;8.70;;;;;;;15.27;85.15;99716.09;10398646;28;20101;-80
2022/10/21 10:00:17;;;;;;;14.30;8.32;;;;;;;15.33;85.74;99725.41;10398880;28;20053;-80
2022/10/21 10:05:35;;;;;;;12.00;8.23;;;;;;;15.45;85.99;99724.06;10397967;28;20045;-81
2022/10/21 10:10:38;;;;;;;12.98;8.55;;;;;;;15.54;85.68;99718.63;10405928;28;20054;-81
2022/10/21 10:15:42;;;;;;;13.15;9.07;;;;;;;15.44;83.71;99724.22;10415404;28;20049;-81
2022/10/21 10:20:45;;;;;;;12.52;8.65;;;;;;;15.52;84.25;99723.38;10415096;28;20107;-80
2022/10/21 10:25:51;;;;;;;11.98;8.70;;;;;;;15.68;85.25;99720.63;10393415;28;20591;-81
2022/10/21 10:30:56;;;;;;;9.63;6.40;;;;;;;15.73;85.10;99728.22;10383148;28;20053;-81
2022/10/21 10:36:01;;;;;;;14.23;7.22;;;;;;;15.79;85.64;99720.25;10377695;28;20053;-82
2022/10/21 10:41:11;;;;;;;10.15;6.97;;;;;;;15.72;84.32;99719.25;10393581;28;20054;-82
2022/10/21 10:46:25;;;;;;;9.95;6.38;;;;;;;15.58;84.04;99725.41;10442053;28;21798;-81
2022/10/21 10:51:31;;;;;;;13.23;6.40;;;;;;;15.54;83.73;99724.88;10411898;28;20037;-82
2022/10/21 10:56:40;;;;;;;9.73;6.32;;;;;;;15.73;85.09;99720.09;10387756;28;20045;-81
2022/10/21 11:01:52;;;;;;;10.57;5.90;;;;;;;15.90;83.95;99724.44;10386054;28;20053;-81
2022/10/21 11:07:03;;;;;;;12.70;6.40;;;;;;;15.91;83.69;99728.84;10405926;28;20418;-82
2022/10/21 11:12:13;;;;;;;10.27;5.88;;;;;;;15.89;84.13;99725.47;10400394;28;20130;-81
2022/10/21 11:17:21;;;;;;;12.88;6.97;;;;;;;15.79;84.19;99730.22;10375241;28;20104;-82
2022/10/21 11:22:37;;;;;;;12.25;6.45;;;;;;;15.75;85.43;99727.03;10355878;28;20767;-82
2022/10/21 11:28:02;;;;;;;9.00;5.88;;;;;;;15.70;85.49;99727.56;10385287;28;20061;-81
2022/10/21 11:33:16;;;;;;;8.70;5.18;;;;;;;15.57;84.08;99719.13;10389855;28;20131;-81
2022/10/21 11:38:36;;;;;;;15.93;7.32;;;;;;;15.73;84.13;99718.25;10394147;28;20048;-81
2022/10/21 11:43:49;;;;;;;18.75;7.63;;;;;;;15.76;81.63;99728.72;10381155;28;20049;-81
2022/10/21 11:49:08;;;;;;;9.25;5.20;;;;;;;15.81;80.46;99729.03;10357542;28;20052;-81
2022/10/21 11:54:41;;;;;;;12.07;4.65;;;;;;;15.76;79.90;99736.84;10408971;28;20171;-82
2022/10/21 12:00:12;;;;;;;11.13;4.78;;;;;;;15.76;80.02;99736.00;10391941;28;20051;-82
2022/10/21 12:05:30;;;;;;;10.15;5.00;;;;;;;15.62;80.00;99746.53;10372265;28;20195;-81
2022/10/21 12:10:37;;;;;;;6.43;4.45;;;;;;;15.69;80.07;99744.81;10387929;28;20045;-81
2022/10/21 12:15:44;;;;;;;5.65;3.63;;;;;;;15.54;80.36;99749.25;10393933;28;20054;-82
2022/10/21 12:20:52;;;;;;;9.07;4.43;;;;;;;15.39;82.38;99745.56;10372126;28;20057;-82
2022/10/21 12:26:14;;;;;;;8.02;3.85;;;;;;;15.41;82.96;99735.41;10390478;28;20071;-81
2022/10/21 12:31:26;;;;;;;;;;;;;;;15.09;84.51;99742.50;10406084;28;20522;-79
2022/10/21 12:36:43;;;;;;;9.65;4.40;;;;;;;15.12;85.03;99734.03;10383800;28;19935;-82
2022/10/21 12:41:47;;;;;;;8.38;4.75;;;;;;;15.10;85.31;99727.94;10418487;28;20076;-81
2022/10/21 12:46:52;;;;;;;7.78;4.20;;;;;;;15.25;85.12;99731.69;10396959;28;21683;-79
2022/10/21 12:52:04;;;;;;;6.90;4.40;;;;;;;15.18;85.77;99730.66;10415556;28;20054;-81
2022/10/21 12:57:09;;;;;;;8.00;4.15;;;;;;;15.31;86.28;99730.16;10408738;28;20064;-82
2022/10/21 13:02:23;;;;;;;7.72;4.65;;;;;;;15.21;86.54;99749.25;10383221;28;20587;-81
2022/10/21 13:07:38;;;;;;;7.47;4.15;;;;;;;15.29;86.59;99740.28;10396933;28;20053;-81
2022/10/21 13:12:41;;;;;;;6.45;4.32;;;;;;;15.34;86.58;99745.19;10392219;28;20391;-81
2022/10/21 13:17:49;;;;;;;5.35;3.38;;;;;;;15.04;87.10;99751.13;10367272;28;20599;-80
2022/10/21 13:23:14;;;;;;;6.15;3.00;;;;;;;14.81;86.02;99759.06;10382061;28;20049;-80
2022/10/21 13:28:20;;;;;;;6.38;3.50;;;;;;;15.13;85.64;99749.25;10393185;28;20053;-81
2022/10/21 13:33:26;;;;;;;6.03;3.20;;;;;;;14.94;85.26;99752.28;10389851;28;20048;-79
2022/10/21 13:38:34;;;;;;;5.97;4.10;;;;;;;15.14;85.46;99737.44;10399621;28;20091;-79
2022/10/21 13:43:45;;;;;;;8.43;3.53;;;;;;;15.42;85.35;99727.13;10402878;28;20051;-79
2022/10/21 13:48:49;;;;;;;6.15;3.30;;;;;;;15.55;84.43;99742.84;10411121;28;20180;-79
2022/10/21 13:53:56;;;;;;;4.47;3.28;;;;;;;15.91;83.88;99747.81;10408647;28;20052;-81
2022/10/21 13:58:58;;;;;;;7.07;3.15;;;;;;;16.19;82.91;99739.22;10381786;28;20063;-81
2022/10/21 14:04:12;;;;;;;10.45;3.80;;;;;;;16.24;81.88;99742.25;10400723;28;20056;-79
2022/10/21 14:09:19;;;;;;;7.43;3.75;;;;;;;16.32;81.57;99737.66;10377749;28;20137;-80
2022/10/21 14:14:24;;;;;;;5.63;3.25;;;;;;;16.24;82.07;99748.53;10372940;28;20048;-80
2022/10/21 14:19:33;;;;;;;4.63;3.53;;;;;;;16.02;81.40;99754.72;10391305;28;20132;-81
2022/10/21 14:24:40;;;;;;;5.47;3.45;;;;;;;15.92;82.43;99749.50;10389873;28;20530;-81
2022/10/21 14:29:44;;;;;;;7.18;3.72;;;;;;;16.10;82.65;99751.97;10388568;28;20042;-79
2022/10/21 14:34:59;;;;;;;6.43;3.55;;;;;;;16.06;81.90;99750.63;10395465;28;20046;-81
2022/10/21 14:40:25;;;;;;;6.13;4.03;;;;;;;16.42;81.95;99750.16;10385372;28;20072;-79
2022/10/21 14:45:30;;;;;;;9.20;3.47;;;;;;;16.64;80.33;99741.19;10388399;28;20053;-81
2022/10/21 14:50:34;;;;;;;5.88;3.35;;;;;;;16.62;79.04;99743.25;10386345;28;20430;-80
2022/10/21 14:55:39;;;;;;;6.43;3.15;;;;;;;16.74;79.13;99740.97;10404095;28;20053;-82
2022/10/21 15:00:43;;;;;;;6.40;2.72;;;;;;;16.61;79.92;99733.41;10373678;28;20410;-82
2022/10/21 15:05:46;;;;;;;4.95;3.10;;;;;;;16.43;79.08;99736.44;10384147;28;20049;-82
2022/10/21 15:11:22;;;;;;;5.25;3.13;;;;;;;16.29;79.30;99743.44;10388169;28;20517;-82
2022/10/21 15:16:29;;;;;;;5.00;2.33;;;;;;;15.94;79.44;99744.75;10389996;28;20198;-81
2022/10/21 15:21:36;;;;;;;4.15;2.58;;;;;;;16.16;80.47;99737.72;10397243;28;20045;-81
2022/10/21 15:26:41;;;;;;;5.65;2.78;;;;;;;16.19;80.24;99733.81;10396846;28;20048;-80
2022/10/21 15:31:44;;;;;;;4.22;2.63;;;;;;;16.12;80.53;99730.94;10399327;28;20592;-81
2022/10/21 15:36:47;;;;;;;6.38;2.80;;;;;;;15.97;80.08;99730.84;10406724;28;20152;-80
2022/10/21 15:41:53;;;;;;;5.40;2.55;;;;;;;15.93;80.71;99730.38;10391200;28;20612;-82
2022/10/21 15:46:59;;;;;;;5.30;3.10;;;;;;;15.92;80.37;99738.66;10403309;28;20056;-81
2022/10/21 15:52:02;;;;;;;14.25;3.53;;;;;;;15.82;80.83;99744.25;10392935;28;20149;-82
2022/10/21 15:57:14;;;;;;;5.82;3.35;;;;;;;15.75;80.75;99746.00;10397151;28;20630;-81
2022/10/21 16:02:17;;;;;;;5.07;3.17;;;;;;;15.63;81.18;99747.34;10394775;28;20061;-83
2022/10/21 16:07:23;;;;;;;5.32;3.22;;;;;;;15.53;81.53;99750.28;10394095;28;20049;-79
2022/10/21 16:12:27;;;;;;;9.05;3.88;;;;;;;15.45;81.75;99750.28;10398725;28;20767;-82
2022/10/21 16:17:29;;;;;;;7.00;3.53;;;;;;;15.32;82.34;99739.09;10416302;28;20056;-80
2022/10/21 16:22:32;;;;;;;4.78;3.00;;;;;;;15.25;82.58;99747.91;10398589;28;20557;-82
2022/10/21 16:27:37;;;;;;;4.90;3.70;;;;;;;15.19;82.91;99743.19;10396594;28;20062;-81
2022/10/21 16:32:57;;;;;;;14.95;5.72;;;;;;;15.12;83.32;99746.72;10410296;28;21995;-81
2022/10/21 16:37:59;;;;;;;10.15;4.55;;;;;;;15.06;83.88;99745.56;10434317;28;20084;-80
2022/10/21 16:43:04;;;;;;;10.98;4.10;;;;;;;15.04;83.79;99751.13;10433043;28;20077;-82
2022/10/21 16:48:07;;;;;;;10.50;3.80;;;;;;;14.97;84.23;99766.31;10416686;28;20098;-83
2022/10/21 16:53:13;;;;;;;11.20;4.78;;;;;;;14.95;84.34;99775.63;10426111;28;20224;-82
2022/10/21 16:58:17;;;;;;;8.88;4.82;;;;;;;14.94;84.62;99768.50;10416919;28;20120;-81
2022/10/21 17:03:20;;;;;;;7.90;5.80;;;;;;;14.92;84.71;99767.84;10418356;28;20055;-82
2022/10/21 17:08:23;;;;;;;12.60;6.47;;;;;;;14.89;84.90;99770.88;10405025;28;20109;-81
2022/10/21 17:13:27;;;;;;;10.07;6.20;;;;;;;14.86;84.95;99771.22;10403002;28;20049;-81
2022/10/21 17:18:30;;;;;;;14.15;6.30;;;;;;;14.83;84.94;99778.63;10414194;28;21209;-79
2022/10/21 17:23:33;;;;;;;9.48;6.30;;;;;;;14.85;84.96;99764.13;10415199;28;20048;-79
2022/10/21 17:28:37;;;;;;;12.93;6.00;;;;;;;14.85;84.86;99767.66;10383578;28;20049;-81
2022/10/21 17:33:40;;;;;;;16.40;6.97;;;;;;;14.83;85.15;99769.69;10399603;28;20045;-80
2022/10/21 17:38:43;;;;;;;9.02;6.38;;;;;;;14.81;84.98;99775.28;10354788;28;20520;-79
2022/10/21 17:43:47;;;;;;;12.68;5.32;;;;;;;14.78;84.79;99781.03;10388951;28;20140;-80
2022/10/21 17:48:51;;;;;;;14.82;5.85;;;;;;;14.73;84.69;99771.72;10388869;28;21231;-80
2022/10/21 17:53:54;;;;;;;10.77;6.60;;;;;;;14.67;84.64;99780.47;10395337;28;20038;-80
2022/10/21 17:59:00;;;;;;;13.95;7.20;;;;;;;14.56;85.08;99785.19;10400034;28;20060;-80
2022/10/21 18:04:02;;;;;;;13.10;7.07;;;;;;;14.49;85.03;99792.25;10398748;28;20510;-79
2022/10/21 18:09:07;;;;;;;9.65;5.70;;;;;;;14.43;85.13;99802.88;10390125;28;20188;-79
2022/10/21 18:14:11;;;;;;;16.17;6.00;;;;;;;14.40;85.40;99805.88;10386486;28;20051;-81
2022/10/21 18:19:14;;;;;;;13.60;7.60;;;;;;;14.38;85.33;99806.91;10385617;28;20052;-80
2022/10/21 18:24:17;;;;;;;13.68;8.35;;;;;;;14.42;85.55;99802.00;10404127;28;20053;-79
2022/10/21 18:29:22;;;;;;;8.43;4.22;;;;;;;14.50;84.56;99810.16;10398675;28;20038;-80
2022/10/21 18:34:25;;;;;;;8.73;3.92;;;;;;;14.65;83.38;99810.38;10437604;23;20053;-77
2022/10/21 18:39:27;;;;;;;6.05;5.45;;;;;;;14.72;82.42;99813.25;10445323;28;20045;-78
2022/10/21 18:44:31;;;;;;;8.57;3.88;;;;;;;14.79;81.78;99800.78;10454367;28;20135;-78
2022/10/21 18:49:34;;;;;;;10.25;6.05;;;;;;;14.78;81.15;99799.06;10460724;28;20049;-76
2022/10/21 18:54:37;;;;;;;3.80;2.70;;;;;;;14.77;81.39;99800.09;10473027;28;20044;-78
2022/10/21 18:59:41;;;;;;;6.43;2.50;;;;;;;14.80;80.71;99802.47;10461791;28;20046;-76
2022/10/21 19:04:44;;;;;;;6.22;3.55;;;;;;;14.81;80.45;99794.19;10459744;28;20051;-75
2022/10/21 19:09:47;;;;;;;7.10;3.08;;;;;;;14.65;80.63;99798.72;10462452;28;20041;-76
2022/10/21 19:14:51;;;;;;;4.00;3.42;;;;;;;14.43;81.06;99801.03;10450610;28;20041;-76
2022/10/21 19:19:54;;;;;;;8.73;6.28;;;;;;;14.11;81.56;99797.13;10458410;28;20048;-77
2022/10/21 19:24:56;;;;;;;8.65;6.78;;;;;;;13.90;82.51;99793.97;10461410;28;20102;-76
2022/10/21 19:30:01;;;;;;;8.80;7.47;;;;;;;13.79;83.60;99802.34;10463157;28;20052;-76
2022/10/21 19:35:04;;;;;;;10.98;7.32;;;;;;;13.79;84.36;99803.19;10453857;28;20056;-78
2022/10/21 19:40:08;;;;;;;9.52;6.80;;;;;;;13.73;84.82;99811.94;10459894;28;20048;-76
2022/10/21 19:45:15;;;;;;;11.63;5.43;;;;;;;13.64;85.14;99824.53;10458264;28;21239;-76
2022/10/21 19:50:18;;;;;;;9.70;5.10;;;;;;;13.61;85.23;99834.81;10459238;28;20070;-77
2022/10/21 19:55:21;;;;;;;5.03;3.63;;;;;;;13.64;85.62;99831.78;10443826;28;20049;-76
2022/10/21 20:00:25;;;;;;;6.10;3.47;;;;;;;13.73;85.57;99848.88;10445155;28;20052;-76
2022/10/21 20:05:30;;;;;;;4.78;3.60;;;;;;;13.80;85.15;99837.31;10432477;28;20041;-75
2022/10/21 20:10:33;;;;;;;3.45;3.15;;;;;;;13.91;84.93;99841.59;10453315;28;20150;-76
2022/10/21 20:15:37;;;;;;;2.80;2.60;;;;;;;13.98;84.92;99836.38;10459606;28;20051;-76
2022/10/21 20:20:41;;;;;;;3.83;3.15;;;;;;;14.02;84.58;99841.31;10459075;28;20178;-79
2022/10/21 20:25:48;;;;;;;3.85;3.45;;;;;;;13.86;84.14;99833.97;10469072;28;20131;-78
2022/10/21 20:30:59;;;;;;;5.93;4.13;;;;;;;13.57;83.92;99830.72;10457890;28;20044;-77
2022/10/21 20:36:04;;;;;;;10.20;6.27;;;;;;;13.29;84.29;99828.09;10458211;28;20523;-76
2022/10/21 20:41:08;;;;;;;11.90;8.50;;;;;;;13.09;84.51;99831.97;10452018;28;20524;-77
2022/10/21 20:46:13;;;;;;;13.65;8.73;;;;;;;13.02;85.97;99840.66;10419399;28;20614;-77
2022/10/21 20:51:19;;;;;;;10.73;8.55;;;;;;;13.09;86.29;99854.38;10436325;28;20060;-77
2022/10/21 20:56:25;;;;;;;8.93;7.25;;;;;;;13.15;86.25;99861.00;10441270;28;20048;-77
2022/10/21 21:01:31;;;;;;;13.20;8.15;;;;;;;13.21;86.09;99866.63;10442289;28;20056;-77
2022/10/21 21:06:37;;;;;;;16.17;7.32;;;;;;;13.26;86.38;99867.00;10443516;28;20071;-76
2022/10/21 21:11:40;;;;;;;9.68;7.43;;;;;;;13.28;86.25;99869.56;10452707;28;20056;-75
2022/10/21 21:16:44;;;;;;;9.05;6.63;;;;;;;13.26;86.03;99885.06;10454917;28;20524;-77
2022/10/21 21:21:47;;;;;;;8.80;6.43;;;;;;;13.24;86.43;99895.13;10457387;28;20420;-76
2022/10/21 21:26:50;;;;;;;9.75;7.15;;;;;;;13.22;85.89;99895.31;10455288;28;20154;-75
2022/10/21 21:31:54;;;;;;;9.90;7.07;;;;;;;13.11;86.32;99890.16;10456374;28;20067;-77
2022/10/21 21:36:57;;;;;;;17.45;6.65;;;;;;;13.17;86.21;99880.59;10456805;28;20054;-77
2022/10/21 21:42:00;;;;;;;9.32;7.20;;;;;;;13.19;86.33;99874.03;10450023;28;20055;-76
2022/10/21 21:47:04;;;;;;;11.23;6.28;;;;;;;13.32;86.92;99881.72;10455875;28;20055;-76
2022/10/21 21:52:06;;;;;;;10.65;7.03;;;;;;;13.40;86.42;99881.00;10454961;28;21296;-77
2022/10/21 21:57:09;;;;;;;9.85;6.47;;;;;;;13.39;86.61;99888.25;10456087;28;20055;-78
2022/10/21 22:02:30;;;;;;;10.35;7.63;;;;;;;13.37;86.21;99882.16;10441146;28;20187;-76
2022/10/21 22:07:33;;;;;;;8.50;5.43;;;;;;;13.34;86.41;99887.81;10437736;28;20144;-78
2022/10/21 22:12:36;;;;;;;6.75;5.65;;;;;;;13.30;86.31;99878.34;10426171;28;20052;-76
2022/10/21 22:17:41;;;;;;;9.45;7.10;;;;;;;13.23;86.22;99875.41;10444652;28;20135;-76
2022/10/21 22:22:44;;;;;;;12.43;7.38;;;;;;;13.18;86.35;99875.03;10437020;28;20044;-77
2022/10/21 22:27:47;;;;;;;7.70;5.00;;;;;;;13.25;87.08;99881.50;10440534;28;20052;-76
2022/10/21 22:32:51;;;;;;;9.85;5.47;;;;;;;13.33;86.05;99893.38;10452399;28;20418;-77
2022/10/21 22:37:54;;;;;;;5.82;4.53;;;;;;;13.25;86.23;99875.28;10430406;28;20044;-76
2022/10/21 22:42:57;;;;;;;6.07;5.47;;;;;;;13.13;86.44;99869.25;10426620;28;20041;-76
2022/10/21 22:48:01;;;;;;;9.77;4.80;;;;;;;13.12;86.69;99883.75;10434683;28;20044;-76
2022/10/21 22:53:04;;;;;;;6.43;4.35;;;;;;;13.17;86.65;99880.59;10440033;28;20474;-77
2022/10/21 22:58:07;;;;;;;7.97;4.25;;;;;;;13.26;86.89;99876.97;10430626;28;20048;-77
2022/10/21 23:03:11;;;;;;;7.40;5.05;;;;;;;13.36;86.78;99871.50;10431349;28;20048;-77
2022/10/21 23:08:14;;;;;;;7.20;4.65;;;;;;;13.37;86.52;99871.38;10428648;28;20141;-76
2022/10/21 23:13:17;;;;;;;8.25;4.53;;;;;;;13.18;85.24;99866.94;10433310;28;20069;-76
2022/10/21 23:18:21;;;;;;;16.90;5.63;;;;;;;12.77;85.19;99873.75;10423899;28;20855;-76
2022/10/21 23:23:24;;;;;;;7.63;5.82;;;;;;;12.57;85.72;99871.16;10430801;28;20045;-76
2022/10/21 23:28:27;;;;;;;10.88;6.47;;;;;;;12.49;85.98;99881.84;10431892;28;20056;-76
2022/10/21 23:33:31;;;;;;;9.90;6.40;;;;;;;12.39;86.01;99875.63;10433918;28;20147;-77
2022/10/21 23:38:34;;;;;;;11.45;7.13;;;;;;;12.36;85.98;99884.03;10444192;28;20040;-77